createdAt,value
2022-08-25T04:30:59.689Z,12.00
2022-08-25T04:31:59.709Z,12.00
2022-08-25T04:32:59.637Z,16.00
2022-08-25T04:33:59.626Z,12.00
2022-08-25T04:34:59.624Z,16.00
2022-08-25T04:35:59.656Z,16.00
2022-08-25T04:36:59.616Z,20.00
2022-08-25T04:37:59.638Z,20.00
2022-08-25T04:38:59.634Z,24.00
2022-08-25T04:39:59.613Z,24.00
2022-08-25T04:40:59.557Z,28.00
2022-08-25T04:41:59.590Z,24.00
2022-08-25T04:42:59.524Z,28.00
2022-08-25T04:43:59.539Z,32.00
2022-08-25T04:44:59.499Z,32.00
2022-08-25T04:45:59.577Z,36.00
2022-08-25T04:46:59.534Z,36.00
2022-08-25T04:47:59.467Z,40.00
2022-08-25T04:48:59.480Z,44.00
2022-08-25T04:49:59.453Z,44.00
2022-08-25T04:50:59.450Z,48.00
2022-08-25T04:51:59.487Z,52.00
2022-08-25T04:52:59.422Z,52.00
2022-08-25T04:53:59.426Z,56.00
2022-08-25T04:54:59.422Z,60.00
2022-08-25T04:56:03.216Z,60.00
2022-08-25T04:56:59.368Z,64.00
2022-08-25T04:57:59.427Z,68.00
2022-08-25T04:58:59.358Z,68.00
2022-08-25T04:59:59.407Z,72.00
2022-08-25T05:00:59.385Z,76.00
2022-08-25T05:01:59.488Z,80.00
2022-08-25T05:02:59.305Z,84.00
2022-08-25T05:03:59.314Z,84.00
2022-08-25T05:04:59.303Z,84.00
2022-08-25T05:05:59.290Z,88.00
2022-08-25T05:06:59.278Z,92.00
2022-08-25T05:07:59.313Z,96.00
2022-08-25T05:08:59.239Z,96.00
2022-08-25T05:09:59.246Z,100.00
2022-08-25T05:10:59.218Z,104.00
2022-08-25T05:11:59.254Z,104.00
2022-08-25T05:12:59.197Z,108.00
2022-08-25T05:13:59.198Z,112.00
2022-08-25T05:14:59.204Z,116.00
2022-08-25T05:16:00.238Z,116.00
2022-08-25T05:16:59.157Z,120.00
2022-08-25T05:17:59.155Z,120.00
2022-08-25T05:18:59.131Z,128.00
2022-08-25T05:19:59.116Z,132.00
2022-08-25T05:20:59.128Z,136.00
2022-08-25T05:21:59.108Z,136.00
2022-08-25T05:22:59.113Z,140.00
2022-08-25T05:23:59.079Z,144.00
2022-08-25T05:24:59.125Z,144.00
2022-08-25T05:25:59.049Z,148.00
2022-08-25T05:26:59.060Z,152.00
2022-08-25T05:27:59.103Z,156.00
2022-08-25T05:28:59.053Z,160.00
2022-08-25T05:29:59.010Z,160.00
2022-08-25T05:30:59.049Z,164.00
2022-08-25T05:31:59.088Z,168.00
2022-08-25T05:32:58.980Z,172.00
2022-08-25T05:33:58.975Z,172.00
2022-08-25T05:34:58.973Z,176.00
2022-08-25T05:35:58.943Z,180.00
2022-08-25T05:36:58.936Z,188.00
2022-08-25T05:37:58.993Z,188.00
2022-08-25T05:38:58.912Z,192.00
2022-08-25T05:39:58.945Z,196.00
2022-08-25T05:40:58.892Z,200.00
2022-08-25T05:41:58.911Z,200.00
2022-08-25T05:42:58.870Z,208.00
2022-08-25T05:43:58.862Z,212.00
2022-08-25T05:44:58.847Z,216.00
2022-08-25T05:45:58.912Z,224.00
2022-08-25T05:46:58.867Z,224.00
2022-08-25T05:47:58.814Z,232.00
2022-08-25T05:48:58.806Z,236.00
2022-08-25T05:49:58.797Z,240.00
2022-08-25T05:50:58.784Z,244.00
2022-08-25T05:51:58.777Z,244.00
2022-08-25T05:52:58.800Z,252.00
2022-08-25T05:53:58.751Z,256.00
2022-08-25T05:54:58.746Z,260.00
2022-08-25T05:55:58.750Z,264.00
2022-08-25T05:56:58.719Z,268.00
2022-08-25T05:57:58.709Z,272.00
2022-08-25T05:58:58.736Z,276.00
2022-08-25T05:59:58.681Z,280.00
2022-08-25T06:00:58.736Z,288.00
2022-08-25T06:01:58.662Z,292.00
2022-08-25T06:02:58.686Z,304.00
2022-08-25T06:03:58.701Z,312.00
2022-08-25T06:04:58.638Z,324.00
2022-08-25T06:05:58.639Z,332.00
2022-08-25T06:06:58.619Z,348.00
2022-08-25T06:07:58.613Z,368.00
2022-08-25T06:08:58.608Z,392.00
2022-08-25T06:09:58.579Z,428.00
2022-08-25T06:10:58.569Z,456.00
2022-08-25T06:11:58.599Z,492.00
2022-08-25T06:12:58.564Z,528.00
2022-08-25T06:13:58.553Z,560.00
2022-08-25T06:14:58.532Z,600.00
2022-08-25T06:15:58.560Z,640.00
2022-08-25T06:16:58.502Z,684.00
2022-08-25T06:18:01.614Z,720.00
2022-08-25T06:18:58.495Z,760.00
2022-08-25T06:19:58.502Z,796.00
2022-08-25T06:20:58.463Z,832.00
2022-08-25T06:21:58.457Z,872.00
2022-08-25T06:22:58.436Z,916.00
2022-08-25T06:23:58.445Z,948.00
2022-08-25T06:24:58.418Z,984.00
2022-08-25T06:25:58.421Z,1012.00
2022-08-25T06:26:58.392Z,1036.00
2022-08-25T06:27:58.391Z,1060.00
2022-08-25T06:28:58.373Z,1084.00
2022-08-25T06:29:58.368Z,1108.00
2022-08-25T06:30:59.361Z,1128.00
2022-08-25T06:31:58.392Z,1148.00
2022-08-25T06:32:58.335Z,1172.00
2022-08-25T06:33:58.318Z,1196.00
2022-08-25T06:34:58.305Z,1236.00
2022-08-25T06:35:58.321Z,1264.00
2022-08-25T06:36:58.295Z,1292.00
2022-08-25T06:37:58.284Z,1320.00
2022-08-25T06:38:58.287Z,1348.00
2022-08-25T06:39:58.355Z,1376.00
2022-08-25T06:40:58.241Z,1400.00
2022-08-25T06:41:58.247Z,1432.00
2022-08-25T06:42:58.257Z,1456.00
2022-08-25T06:44:05.576Z,1484.00
2022-08-25T06:44:59.214Z,1508.00
2022-08-25T06:45:58.187Z,1532.00
2022-08-25T06:46:58.196Z,1564.00
2022-08-25T06:47:58.186Z,1584.00
2022-08-25T06:48:58.188Z,1604.00
2022-08-25T06:49:58.163Z,1628.00
2022-08-25T06:50:58.133Z,1648.00
2022-08-25T06:51:58.126Z,1676.00
2022-08-25T06:52:58.115Z,1696.00
2022-08-25T06:53:58.111Z,1732.00
2022-08-25T06:54:58.233Z,1748.00
2022-08-25T06:55:58.081Z,1772.00
2022-08-25T06:56:58.133Z,1796.00
2022-08-25T06:57:58.050Z,1816.00
2022-08-25T06:58:58.062Z,1828.00
2022-08-25T06:59:58.049Z,1852.00
2022-08-25T07:00:58.065Z,1872.00
2022-08-25T07:01:58.099Z,1892.00
2022-08-25T07:02:58.039Z,1916.00
2022-08-25T07:03:57.989Z,1932.00
2022-08-25T07:04:57.992Z,1948.00
2022-08-25T07:05:57.988Z,1964.00
2022-08-25T07:06:57.954Z,1924.00
2022-08-25T07:07:57.943Z,1940.00
2022-08-25T07:08:57.951Z,1960.00
2022-08-25T07:09:57.942Z,1980.00
2022-08-25T07:10:57.921Z,1996.00
2022-08-25T07:11:57.903Z,2016.00
2022-08-25T07:12:57.903Z,2020.00
2022-08-25T07:13:57.892Z,1944.00
2022-08-25T07:15:17.146Z,2052.00
2022-08-25T07:15:58.891Z,2060.00
2022-08-25T07:16:57.867Z,2076.00
2022-08-25T07:17:57.832Z,2088.00
2022-08-25T07:18:57.825Z,2100.00
2022-08-25T07:19:57.869Z,2112.00
2022-08-25T07:20:57.821Z,2120.00
2022-08-25T07:21:57.821Z,2132.00
2022-08-25T07:22:57.803Z,2144.00
2022-08-25T07:23:57.775Z,2156.00
2022-08-25T07:24:57.785Z,2168.00
2022-08-25T07:25:57.767Z,2168.00
2022-08-25T07:26:57.741Z,2184.00
2022-08-25T07:28:58.720Z,2196.00
2022-08-25T07:29:57.729Z,2204.00
2022-08-25T07:30:57.747Z,2216.00
2022-08-25T07:31:57.777Z,2224.00
2022-08-25T07:32:57.675Z,2224.00
2022-08-25T07:33:57.688Z,2236.00
2022-08-25T07:34:57.667Z,2248.00
2022-08-25T07:35:57.640Z,2248.00
2022-08-25T07:36:57.627Z,2268.00
2022-08-25T07:37:57.637Z,2272.00
2022-08-25T07:38:57.630Z,2276.00
2022-08-25T07:39:57.683Z,2280.00
2022-08-25T07:40:57.621Z,2288.00
2022-08-25T07:41:57.585Z,2304.00
2022-08-25T07:42:57.567Z,2304.00
2022-08-25T07:43:57.572Z,2308.00
2022-08-25T07:44:57.570Z,2312.00
2022-08-25T07:45:57.543Z,2324.00
2022-08-25T07:46:57.552Z,2328.00
2022-08-25T07:47:57.522Z,2344.00
2022-08-25T07:48:57.503Z,2344.00
2022-08-25T07:49:57.566Z,2348.00
2022-08-25T07:50:57.484Z,2356.00
2022-08-25T07:52:05.697Z,2364.00
2022-08-25T07:52:58.461Z,2376.00
2022-08-25T07:53:57.499Z,2388.00
2022-08-25T07:54:57.448Z,2372.00
2022-08-25T07:55:57.546Z,2396.00
2022-08-25T07:56:57.420Z,2384.00
2022-08-25T07:57:57.551Z,2400.00
2022-08-25T07:58:57.415Z,2392.00
2022-08-25T07:59:57.516Z,2416.00
2022-08-25T08:00:57.381Z,2404.00
2022-08-25T08:01:57.479Z,2416.00
2022-08-25T08:02:57.405Z,2420.00
2022-08-25T08:04:00.397Z,2420.00
2022-08-25T08:04:57.336Z,2428.00
2022-08-25T08:05:57.320Z,2432.00
2022-08-25T08:06:57.329Z,2436.00
2022-08-25T08:07:57.330Z,2440.00
2022-08-25T08:08:57.981Z,2460.00
2022-08-25T08:10:32.827Z,2456.00
2022-08-25T08:11:04.610Z,2448.00
2022-08-25T08:11:58.256Z,2464.00
2022-08-25T08:12:57.283Z,2452.00
2022-08-25T08:13:57.247Z,2456.00
2022-08-25T08:14:57.243Z,2460.00
2022-08-25T08:15:57.384Z,2468.00
2022-08-25T08:16:57.205Z,2452.00
2022-08-25T08:17:57.893Z,2480.00
2022-08-25T08:18:57.187Z,2492.00
2022-08-25T08:19:57.191Z,2472.00
2022-08-25T08:20:57.188Z,2476.00
2022-08-25T08:21:57.165Z,2480.00
2022-08-25T08:22:57.149Z,2472.00
2022-08-25T08:23:59.048Z,2476.00
2022-08-25T08:24:57.219Z,2472.00
2022-08-25T08:25:57.130Z,2476.00
2022-08-25T08:26:59.140Z,2468.00
2022-08-25T08:27:57.089Z,2472.00
2022-08-25T08:28:57.189Z,2460.00
2022-08-25T08:29:57.098Z,2520.00
2022-08-25T08:30:57.093Z,2532.00
2022-08-25T08:31:57.047Z,2524.00
2022-08-25T08:33:09.582Z,2524.00
2022-08-25T08:33:58.055Z,2524.00
2022-08-25T08:34:57.036Z,2528.00
2022-08-25T08:35:57.033Z,2536.00
2022-08-25T08:36:56.993Z,2716.00
2022-08-25T08:37:57.029Z,2464.00
2022-08-25T08:38:56.969Z,2472.00
2022-08-25T08:39:56.998Z,2476.00
2022-08-25T08:40:57.042Z,2468.00
2022-08-25T08:42:12.379Z,2464.00
2022-08-25T08:42:57.930Z,2468.00
2022-08-25T08:43:56.946Z,2460.00
2022-08-25T08:44:59.155Z,2464.00
2022-08-25T08:45:56.914Z,2456.00
2022-08-25T08:46:56.984Z,2452.00
2022-08-25T08:47:56.891Z,2448.00
2022-08-25T08:48:56.857Z,2440.00
2022-08-25T08:49:56.865Z,2444.00
2022-08-25T08:50:56.836Z,2452.00
2022-08-25T08:51:56.827Z,2448.00
2022-08-25T08:52:56.850Z,2444.00
2022-08-25T08:53:57.358Z,2432.00
2022-08-25T08:54:56.826Z,2432.00
2022-08-25T08:55:56.820Z,2424.00
2022-08-25T08:56:56.840Z,2424.00
2022-08-25T08:57:56.766Z,2428.00
2022-08-25T08:58:56.755Z,2416.00
2022-08-25T08:59:56.826Z,2412.00
2022-08-25T09:00:56.733Z,2412.00
2022-08-25T09:01:56.800Z,2416.00
2022-08-25T09:02:56.772Z,2412.00
2022-08-25T09:03:56.697Z,2412.00
2022-08-25T09:04:56.713Z,2408.00
2022-08-25T09:05:56.692Z,2404.00
2022-08-25T09:06:56.672Z,2408.00
2022-08-25T09:07:56.687Z,2416.00
2022-08-25T09:08:56.679Z,2416.00
2022-08-25T09:09:56.659Z,2416.00
2022-08-25T09:10:56.629Z,2436.00
2022-08-25T09:11:56.632Z,2440.00
2022-08-25T09:12:56.644Z,2432.00
2022-08-25T09:13:56.603Z,2436.00
2022-08-25T09:14:56.592Z,2428.00
2022-08-25T09:15:57.531Z,2424.00
2022-08-25T09:16:56.586Z,2420.00
2022-08-25T09:17:56.558Z,2428.00
2022-08-25T09:18:56.550Z,2428.00
2022-08-25T09:19:56.535Z,2412.00
2022-08-25T09:20:56.565Z,2412.00
2022-08-25T09:21:56.535Z,2412.00
2022-08-25T09:22:56.518Z,2412.00
2022-08-25T09:23:56.517Z,2420.00
2022-08-25T09:24:56.484Z,2424.00
2022-08-25T09:25:56.473Z,2420.00
2022-08-25T09:26:56.492Z,2416.00
2022-08-25T09:27:56.448Z,2420.00
2022-08-25T09:28:56.502Z,2360.00
2022-08-25T09:29:56.453Z,2352.00
2022-08-25T09:30:56.667Z,2360.00
2022-08-25T09:31:56.437Z,2416.00
2022-08-25T09:32:56.392Z,2420.00
2022-08-25T09:33:56.408Z,2420.00
2022-08-25T09:34:56.374Z,2428.00
2022-08-25T09:35:57.497Z,2436.00
2022-08-25T09:36:56.384Z,2416.00
2022-08-25T09:37:56.359Z,2416.00
2022-08-25T09:38:56.331Z,2420.00
2022-08-25T09:39:56.362Z,2424.00
2022-08-25T09:40:56.307Z,2440.00
2022-08-25T09:41:56.347Z,2428.00
2022-08-25T09:42:58.057Z,2432.00
2022-08-25T09:43:56.286Z,2436.00
2022-08-25T09:44:56.292Z,2436.00
2022-08-25T09:45:56.278Z,2424.00
2022-08-25T09:46:56.260Z,2436.00
2022-08-25T09:47:56.269Z,2436.00
2022-08-25T09:48:56.713Z,2440.00
2022-08-25T09:49:56.231Z,2436.00
2022-08-25T09:50:56.213Z,2428.00
2022-08-25T09:51:56.262Z,2432.00
2022-08-25T09:52:56.183Z,2440.00
2022-08-25T09:53:56.213Z,2432.00
2022-08-25T09:54:56.268Z,2432.00
2022-08-25T09:55:59.884Z,2428.00
2022-08-25T09:56:56.152Z,2432.00
2022-08-25T09:57:56.135Z,2472.00
2022-08-25T09:59:00.053Z,2460.00
2022-08-25T09:59:57.684Z,2464.00
2022-08-25T10:00:56.112Z,2476.00
2022-08-25T10:01:56.177Z,2468.00
2022-08-25T10:02:56.085Z,2488.00
2022-08-25T10:03:56.110Z,2496.00
2022-08-25T10:04:56.163Z,2484.00
2022-08-25T10:05:56.258Z,2484.00
2022-08-25T10:06:56.073Z,2484.00
2022-08-25T10:07:56.042Z,2488.00
2022-08-25T10:08:56.028Z,2500.00
2022-08-25T10:09:56.006Z,2496.00
2022-08-25T10:10:56.002Z,2496.00
2022-08-25T10:11:57.949Z,2504.00
2022-08-25T10:12:55.990Z,2512.00
2022-08-25T10:13:55.968Z,2508.00
2022-08-25T10:14:55.957Z,2508.00
2022-08-25T10:15:56.051Z,2512.00
2022-08-25T10:16:55.948Z,2512.00
2022-08-25T10:17:55.924Z,2508.00
2022-08-25T10:18:55.907Z,2520.00
2022-08-25T10:19:55.913Z,2512.00
2022-08-25T10:20:55.920Z,2516.00
2022-08-25T10:21:55.880Z,2516.00
2022-08-25T10:22:55.864Z,2500.00
2022-08-25T10:23:55.862Z,2496.00
2022-08-25T10:24:55.880Z,2528.00
2022-08-25T10:25:57.936Z,2520.00
2022-08-25T10:26:56.842Z,2512.00
2022-08-25T10:27:55.851Z,2524.00
2022-08-25T10:28:55.837Z,2520.00
2022-08-25T10:29:55.789Z,2528.00
2022-08-25T10:30:55.825Z,2516.00
2022-08-25T10:31:55.786Z,2512.00
2022-08-25T10:32:55.818Z,2532.00
2022-08-25T10:33:55.755Z,2532.00
2022-08-25T10:34:55.743Z,2528.00
2022-08-25T10:35:55.732Z,2532.00
2022-08-25T10:36:56.125Z,2536.00
2022-08-25T10:37:55.745Z,2524.00
2022-08-25T10:38:55.718Z,2528.00
2022-08-25T10:39:55.922Z,2508.00
2022-08-25T10:40:55.691Z,2436.00
2022-08-25T10:41:55.705Z,2416.00
2022-08-25T10:42:55.659Z,2440.00
2022-08-25T10:43:55.666Z,2452.00
2022-08-25T10:44:55.654Z,2476.00
2022-08-25T10:45:55.670Z,2476.00
2022-08-25T10:46:55.640Z,2452.00
2022-08-25T10:47:55.636Z,2436.00
2022-08-25T10:48:55.604Z,2428.00
2022-08-25T10:49:55.588Z,2428.00
2022-08-25T10:50:55.618Z,2428.00
2022-08-25T10:51:55.604Z,2432.00
2022-08-25T10:52:55.561Z,2424.00
2022-08-25T10:53:56.130Z,2440.00
2022-08-25T10:54:55.536Z,2456.00
2022-08-25T10:55:55.525Z,2460.00
2022-08-25T10:56:58.498Z,2480.00
2022-08-25T10:57:55.635Z,2480.00
2022-08-25T10:58:55.540Z,2476.00
2022-08-25T10:59:55.482Z,2468.00
2022-08-25T11:00:55.590Z,2460.00
2022-08-25T11:01:55.487Z,2452.00
2022-08-25T11:02:55.455Z,2440.00
2022-08-25T11:03:55.510Z,2448.00
2022-08-25T11:04:55.459Z,2440.00
2022-08-25T11:05:55.433Z,2476.00
2022-08-25T11:06:55.417Z,2472.00
2022-08-25T11:07:55.499Z,2492.00
2022-08-25T11:08:55.410Z,2468.00
2022-08-25T11:09:55.385Z,2476.00
2022-08-25T11:10:55.394Z,2468.00
2022-08-25T11:11:55.365Z,2504.00
2022-08-25T11:12:55.344Z,2516.00
2022-08-25T11:13:55.359Z,2504.00
2022-08-25T11:14:55.328Z,2492.00
2022-08-25T11:16:15.982Z,2488.00
2022-08-25T11:16:56.372Z,2452.00
2022-08-25T11:17:55.472Z,2436.00
2022-08-25T11:18:55.322Z,2420.00
2022-08-25T11:19:55.275Z,2408.00
2022-08-25T11:20:55.268Z,2428.00
2022-08-25T11:21:55.280Z,2404.00
2022-08-25T11:22:55.421Z,2404.00
2022-08-25T11:23:55.233Z,2400.00
2022-08-25T11:24:55.223Z,2404.00
2022-08-25T11:25:55.210Z,2508.00
2022-08-25T11:26:55.225Z,2596.00
2022-08-25T11:27:55.191Z,2504.00
2022-08-25T11:28:55.189Z,2480.00
2022-08-25T11:29:55.189Z,2476.00
2022-08-25T11:30:55.231Z,2456.00
2022-08-25T11:31:55.162Z,2404.00
2022-08-25T11:32:55.271Z,2416.00
2022-08-25T11:33:55.134Z,2408.00
2022-08-25T11:34:55.137Z,2408.00
2022-08-25T11:35:55.132Z,2404.00
2022-08-25T11:36:55.094Z,2400.00
2022-08-25T11:37:55.128Z,2392.00
2022-08-25T11:38:55.105Z,2400.00
2022-08-25T11:39:55.091Z,2376.00
2022-08-25T11:40:55.092Z,2376.00
2022-08-25T11:41:55.113Z,2276.00
2022-08-25T11:42:55.089Z,2376.00
2022-08-25T11:43:55.073Z,2388.00
2022-08-25T11:44:55.199Z,2392.00
2022-08-25T11:45:55.101Z,2408.00
2022-08-25T11:46:55.004Z,2404.00
2022-08-25T11:47:55.006Z,2332.00
2022-08-25T11:48:55.061Z,2380.00
2022-08-25T11:49:55.006Z,2372.00
2022-08-25T11:50:55.003Z,2340.00
2022-08-25T11:51:54.951Z,2320.00
2022-08-25T11:52:56.053Z,2316.00
2022-08-25T11:53:54.957Z,2316.00
2022-08-25T11:54:54.913Z,2296.00
2022-08-25T11:55:54.936Z,2292.00
2022-08-25T11:56:54.895Z,2280.00
2022-08-25T11:57:54.932Z,2292.00
2022-08-25T11:58:54.871Z,2300.00
2022-08-25T11:59:54.863Z,2472.00
2022-08-25T12:00:54.868Z,2624.00
2022-08-25T12:01:54.851Z,2536.00
2022-08-25T12:02:58.395Z,2420.00
2022-08-25T12:03:55.030Z,2348.00
2022-08-25T12:04:54.853Z,2304.00
2022-08-25T12:05:54.824Z,2296.00
2022-08-25T12:06:54.794Z,2280.00
2022-08-25T12:07:54.784Z,2260.00
2022-08-25T12:08:57.488Z,2268.00
2022-08-25T12:09:54.758Z,2256.00
2022-08-25T12:10:54.748Z,2256.00
2022-08-25T12:11:54.758Z,2232.00
2022-08-25T12:12:54.814Z,2204.00
2022-08-25T12:13:54.735Z,2152.00
2022-08-25T12:14:54.766Z,2152.00
2022-08-25T12:15:54.701Z,2172.00
2022-08-25T12:16:54.752Z,2172.00
2022-08-25T12:17:54.683Z,2152.00
2022-08-25T12:18:54.670Z,2140.00
2022-08-25T12:19:54.695Z,2120.00
2022-08-25T12:20:54.653Z,2116.00
2022-08-25T12:21:54.643Z,2100.00
2022-08-25T12:22:54.652Z,2088.00
2022-08-25T12:23:54.621Z,2084.00
2022-08-25T12:24:54.619Z,2080.00
2022-08-25T12:25:54.598Z,2072.00
2022-08-25T12:26:54.597Z,2052.00
2022-08-25T12:27:54.584Z,2048.00
2022-08-25T12:28:54.558Z,2048.00
2022-08-25T12:29:54.547Z,2036.00
2022-08-25T12:30:54.594Z,2036.00
2022-08-25T12:31:54.528Z,2040.00
2022-08-25T12:32:54.602Z,2032.00
2022-08-25T12:33:54.519Z,2028.00
2022-08-25T12:34:54.499Z,2032.00
2022-08-25T12:35:54.517Z,2008.00
2022-08-25T12:36:54.475Z,1964.00
2022-08-25T12:37:54.467Z,1960.00
2022-08-25T12:38:54.495Z,1944.00
2022-08-25T12:39:54.513Z,1924.00
2022-08-25T12:40:54.460Z,1920.00
2022-08-25T12:41:54.462Z,1912.00
2022-08-25T12:42:54.416Z,1900.00
2022-08-25T12:43:54.441Z,1900.00
2022-08-25T12:44:54.414Z,1900.00
2022-08-25T12:45:54.461Z,1876.00
2022-08-25T12:46:54.381Z,1860.00
2022-08-25T12:47:54.358Z,1836.00
2022-08-25T12:48:54.353Z,1832.00
2022-08-25T12:49:54.343Z,1812.00
2022-08-25T12:50:54.361Z,1796.00
2022-08-25T12:51:54.346Z,1772.00
2022-08-25T12:52:54.312Z,1764.00
2022-08-25T12:53:54.301Z,1760.00
2022-08-25T12:54:54.323Z,1752.00
2022-08-25T12:55:54.278Z,1752.00
2022-08-25T12:56:54.277Z,1724.00
2022-08-25T12:57:54.267Z,1700.00
2022-08-25T12:59:00.920Z,1692.00
2022-08-25T12:59:55.260Z,1692.00
2022-08-25T13:00:56.760Z,1676.00
2022-08-25T13:01:55.324Z,1664.00
2022-08-25T13:02:54.301Z,1648.00
2022-08-25T13:03:54.225Z,1632.00
2022-08-25T13:04:54.195Z,1624.00
2022-08-25T13:05:54.193Z,1596.00
2022-08-25T13:06:54.170Z,1592.00
2022-08-25T13:07:54.160Z,1572.00
2022-08-25T13:08:54.155Z,1564.00
2022-08-25T13:09:54.159Z,1560.00
2022-08-25T13:10:54.157Z,1552.00
2022-08-25T13:11:54.114Z,1528.00
2022-08-25T13:12:54.199Z,1504.00
2022-08-25T13:13:54.094Z,1492.00
2022-08-25T13:14:54.103Z,1480.00
2022-08-25T13:15:54.092Z,1476.00
2022-08-25T13:16:54.199Z,1460.00
2022-08-25T13:17:54.069Z,1448.00
2022-08-25T13:18:54.048Z,1432.00
2022-08-25T13:19:54.053Z,1408.00
2022-08-25T13:20:54.046Z,1392.00
2022-08-25T13:21:54.714Z,1376.00
2022-08-25T13:23:06.509Z,1364.00
2022-08-25T13:24:04.601Z,1352.00
2022-08-25T13:24:55.003Z,1352.00
2022-08-25T13:25:53.992Z,1348.00
2022-08-25T13:26:53.962Z,1340.00
2022-08-25T13:27:53.959Z,1328.00
2022-08-25T13:28:53.942Z,1312.00
2022-08-25T13:29:53.927Z,1292.00
2022-08-25T13:30:53.921Z,1280.00
2022-08-25T13:31:53.988Z,1272.00
2022-08-25T13:32:53.982Z,1252.00
2022-08-25T13:33:54.845Z,1240.00
2022-08-25T13:34:53.887Z,1236.00
2022-08-25T13:35:53.890Z,1236.00
2022-08-25T13:36:54.091Z,1244.00
2022-08-25T13:37:53.839Z,1240.00
2022-08-25T13:38:53.862Z,1240.00
2022-08-25T13:39:56.722Z,1240.00
2022-08-25T13:40:53.891Z,1252.00
2022-08-25T13:41:55.524Z,1248.00
2022-08-25T13:42:56.115Z,1236.00
2022-08-25T13:43:53.785Z,1224.00
2022-08-25T13:44:53.953Z,1216.00
2022-08-25T13:45:53.787Z,1208.00
2022-08-25T13:46:53.798Z,1204.00
2022-08-25T13:47:55.694Z,1200.00
2022-08-25T13:48:53.732Z,1200.00
2022-08-25T13:49:56.569Z,1192.00
2022-08-25T13:50:53.714Z,1180.00
2022-08-25T13:51:53.712Z,1176.00
2022-08-25T13:52:53.718Z,1168.00
2022-08-25T13:53:53.713Z,1156.00
2022-08-25T13:54:53.683Z,1144.00
2022-08-25T13:55:53.663Z,1140.00
2022-08-25T13:56:53.646Z,1128.00
2022-08-25T13:57:53.652Z,1116.00
2022-08-25T13:58:53.626Z,1108.00
2022-08-25T13:59:53.613Z,1096.00
2022-08-25T14:00:53.731Z,1080.00
2022-08-25T14:01:53.794Z,1072.00
2022-08-25T14:02:53.695Z,1064.00
2022-08-25T14:03:53.564Z,1052.00
2022-08-25T14:04:53.945Z,1028.00
2022-08-25T14:05:53.543Z,1008.00
2022-08-25T14:06:53.614Z,1004.00
2022-08-25T14:08:09.112Z,992.00
2022-08-25T14:08:54.817Z,992.00
2022-08-25T14:09:53.504Z,980.00
2022-08-25T14:10:53.493Z,960.00
2022-08-25T14:11:53.493Z,952.00
2022-08-25T14:12:53.536Z,944.00
2022-08-25T14:13:53.464Z,924.00
2022-08-25T14:14:53.457Z,912.00
2022-08-25T14:15:53.461Z,896.00
2022-08-25T14:16:54.205Z,876.00
2022-08-25T14:17:53.455Z,856.00
2022-08-25T14:18:53.437Z,840.00
2022-08-25T14:19:53.397Z,832.00
2022-08-25T14:20:53.410Z,824.00
2022-08-25T14:21:56.782Z,800.00
2022-08-25T14:22:53.397Z,780.00
2022-08-25T14:23:53.384Z,760.00
2022-08-25T14:24:53.337Z,748.00
2022-08-25T14:25:53.364Z,740.00
2022-08-25T14:26:53.821Z,728.00
2022-08-25T14:28:08.803Z,716.00
2022-08-25T14:28:54.301Z,700.00
2022-08-25T14:29:53.327Z,684.00
2022-08-25T14:30:53.287Z,672.00
2022-08-25T14:31:53.323Z,664.00
2022-08-25T14:32:53.260Z,648.00
2022-08-25T14:33:53.253Z,636.00
2022-08-25T14:34:53.267Z,628.00
2022-08-25T14:35:53.715Z,612.00
2022-08-25T14:36:53.242Z,604.00
2022-08-25T14:37:53.242Z,596.00
2022-08-25T14:38:54.558Z,584.00
2022-08-25T14:39:53.279Z,572.00
2022-08-25T14:40:53.208Z,556.00
2022-08-25T14:41:53.328Z,548.00
2022-08-25T14:42:53.174Z,536.00
2022-08-25T14:43:53.172Z,524.00
2022-08-25T14:44:53.154Z,516.00
2022-08-25T14:45:53.189Z,512.00
2022-08-25T14:46:53.123Z,500.00
2022-08-25T14:47:53.110Z,496.00
2022-08-25T14:48:53.128Z,488.00
2022-08-25T14:49:53.125Z,484.00
2022-08-25T14:50:53.084Z,476.00
2022-08-25T14:51:53.076Z,468.00
2022-08-25T14:52:53.168Z,464.00
2022-08-25T14:53:54.060Z,456.00
2022-08-25T14:54:53.057Z,448.00
2022-08-25T14:55:53.058Z,440.00
2022-08-25T14:56:53.014Z,436.00
2022-08-25T14:57:53.030Z,428.00
2022-08-25T14:58:54.304Z,420.00
2022-08-25T14:59:53.043Z,412.00
2022-08-25T15:00:53.061Z,404.00
2022-08-25T15:01:52.967Z,396.00
2022-08-25T15:02:53.030Z,392.00
2022-08-25T15:03:53.048Z,380.00
2022-08-25T15:04:52.936Z,376.00
2022-08-25T15:05:52.923Z,360.00
2022-08-25T15:06:52.931Z,356.00
2022-08-25T15:07:52.917Z,348.00
2022-08-25T15:08:52.896Z,344.00
2022-08-25T15:09:52.885Z,336.00
2022-08-25T15:10:52.880Z,332.00
2022-08-25T15:11:52.881Z,328.00
2022-08-25T15:12:54.072Z,320.00
2022-08-25T15:13:52.867Z,316.00
2022-08-25T15:14:52.834Z,316.00
2022-08-25T15:15:53.274Z,320.00
2022-08-25T15:16:52.925Z,316.00
2022-08-25T15:17:52.815Z,308.00
2022-08-25T15:18:52.807Z,308.00
2022-08-25T15:19:52.777Z,308.00
2022-08-25T15:20:52.764Z,308.00
2022-08-25T15:21:52.781Z,304.00
2022-08-25T15:22:52.760Z,304.00
2022-08-25T15:23:56.227Z,304.00
2022-08-25T15:24:52.723Z,296.00
2022-08-25T15:25:53.133Z,296.00
2022-08-25T15:27:52.774Z,296.00
2022-08-25T15:28:52.699Z,292.00
2022-08-25T15:29:52.675Z,288.00
2022-08-25T15:30:52.677Z,284.00
2022-08-25T15:31:52.714Z,284.00
2022-08-25T15:32:52.664Z,284.00
2022-08-25T15:33:52.664Z,280.00
2022-08-25T15:34:52.636Z,276.00
2022-08-25T15:35:52.603Z,272.00
2022-08-25T15:36:52.598Z,272.00
2022-08-25T15:37:52.603Z,268.00
2022-08-25T15:38:52.597Z,268.00
2022-08-25T15:39:52.610Z,268.00
2022-08-25T15:40:52.573Z,268.00
2022-08-25T15:41:52.608Z,264.00
2022-08-25T15:42:52.526Z,260.00
2022-08-25T15:43:52.512Z,260.00
2022-08-25T15:44:53.295Z,256.00
2022-08-25T15:45:52.512Z,260.00
2022-08-25T15:46:52.573Z,256.00
2022-08-25T15:47:53.985Z,252.00
2022-08-25T15:48:52.497Z,256.00
2022-08-25T15:49:52.463Z,248.00
2022-08-25T15:50:52.444Z,244.00
2022-08-25T15:51:52.582Z,232.00
2022-08-25T15:52:52.440Z,240.00
2022-08-25T15:53:52.403Z,236.00
2022-08-25T15:54:52.425Z,212.00
2022-08-25T15:55:52.430Z,236.00
2022-08-25T15:56:52.378Z,232.00
2022-08-25T15:57:52.387Z,232.00
2022-08-25T15:58:52.372Z,232.00
2022-08-25T15:59:52.349Z,228.00
2022-08-25T16:00:56.574Z,228.00
2022-08-25T16:01:52.385Z,224.00
2022-08-25T16:02:52.348Z,224.00
2022-08-25T16:03:52.329Z,220.00
2022-08-25T16:04:52.324Z,216.00
2022-08-25T16:05:52.283Z,212.00
2022-08-25T16:06:52.417Z,212.00
2022-08-25T16:07:52.284Z,208.00
2022-08-25T16:08:52.252Z,204.00
2022-08-25T16:09:52.258Z,200.00
2022-08-25T16:10:52.239Z,188.00
2022-08-25T16:11:56.852Z,184.00
2022-08-25T16:12:53.226Z,180.00
2022-08-25T16:13:52.193Z,176.00
2022-08-25T16:14:52.251Z,172.00
2022-08-25T16:15:54.187Z,172.00
2022-08-25T16:16:52.167Z,168.00
2022-08-25T16:17:52.162Z,168.00
2022-08-25T16:18:52.165Z,164.00
2022-08-25T16:19:52.137Z,164.00
2022-08-25T16:20:52.122Z,164.00
2022-08-25T16:21:52.116Z,160.00
2022-08-25T16:22:52.143Z,156.00
2022-08-25T16:23:52.102Z,156.00
2022-08-25T16:24:52.079Z,156.00
2022-08-25T16:25:52.076Z,152.00
2022-08-25T16:26:52.076Z,152.00
2022-08-25T16:27:52.082Z,148.00
2022-08-25T16:28:52.041Z,148.00
2022-08-25T16:29:52.026Z,148.00
2022-08-25T16:30:52.899Z,148.00
2022-08-25T16:31:53.377Z,144.00
2022-08-25T16:32:52.011Z,144.00
2022-08-25T16:33:54.751Z,144.00
2022-08-25T16:34:52.976Z,140.00
2022-08-25T16:35:51.963Z,144.00
2022-08-25T16:36:52.029Z,140.00
2022-08-25T16:37:51.946Z,140.00
2022-08-25T16:38:51.963Z,140.00
2022-08-25T16:39:52.003Z,140.00
2022-08-25T16:40:51.915Z,140.00
2022-08-25T16:41:51.909Z,140.00
2022-08-25T16:42:51.911Z,136.00
2022-08-25T16:43:51.905Z,140.00
2022-08-25T16:44:52.771Z,136.00
2022-08-25T16:45:51.856Z,136.00
2022-08-25T16:46:51.873Z,136.00
2022-08-25T16:47:51.864Z,136.00